Time;durP1;ratioP1;P1;durP2;ratioP2;P2;SDS_P1;SDS_P2;PMS_P1;PMS_P2;Temp;Humidity;BMP_temperature;BMP_pressure;BME280_temperature;BME280_humidity;BME280_pressure;Samples;Min_cycle;Max_cycle;Signal;HPM_P1;HPM_P2
2022/11/19 00:00:54;;;;;;;8.00;4.50;;;10.10;99.90;;;;;;4949396;28;20792;-67
2022/11/19 00:03:21;;;;;;;5.87;4.37;;;10.00;99.90;;;;;;4945665;28;20809;-67
2022/11/19 00:05:48;;;;;;;6.30;4.77;;;10.00;99.90;;;;;;4943611;28;20183;-67
2022/11/19 00:08:16;;;;;;;8.10;4.77;;;9.90;99.90;;;;;;4942589;28;20442;-67
2022/11/19 00:10:44;;;;;;;6.67;4.50;;;9.90;99.90;;;;;;4942811;28;20455;-67
2022/11/19 00:13:11;;;;;;;6.87;3.67;;;9.90;99.90;;;;;;5008434;28;20959;-67
2022/11/19 00:15:36;;;;;;;6.80;4.00;;;9.90;99.90;;;;;;4949427;28;20447;-67
2022/11/19 00:18:05;;;;;;;5.50;3.30;;;9.80;99.90;;;;;;4945434;28;21196;-68
2022/11/19 00:20:32;;;;;;;6.73;4.83;;;9.80;99.90;;;;;;4946385;28;20203;-67
2022/11/19 00:22:57;;;;;;;6.90;3.70;;;10.00;99.90;;;;;;4950080;28;20435;-68
2022/11/19 00:25:25;;;;;;;5.50;4.20;;;9.90;99.90;;;;;;4949428;28;20445;-67
2022/11/19 00:27:51;;;;;;;6.60;4.00;;;10.00;99.90;;;;;;4941387;28;20724;-68
2022/11/19 00:30:18;;;;;;;7.07;3.80;;;10.00;99.90;;;;;;5004459;28;20998;-67
2022/11/19 00:32:43;;;;;;;6.10;3.90;;;10.00;99.90;;;;;;4941166;28;20451;-67
2022/11/19 00:35:09;;;;;;;4.67;4.07;;;10.10;99.90;;;;;;4950554;28;20427;-68
2022/11/19 00:37:35;;;;;;;8.40;4.17;;;10.10;99.90;;;;;;4940680;28;20190;-68
2022/11/19 00:40:00;;;;;;;8.27;4.07;;;10.20;99.90;;;;;;4944796;28;20908;-69
2022/11/19 00:42:26;;;;;;;6.13;4.03;;;10.20;99.90;;;;;;4946618;28;20207;-68
2022/11/19 00:44:52;;;;;;;6.40;3.63;;;10.20;99.90;;;;;;4951273;28;20218;-68
2022/11/19 00:47:18;;;;;;;10.37;4.67;;;10.20;99.90;;;;;;4941784;28;20541;-68
2022/11/19 00:49:43;;;;;;;7.53;4.57;;;10.10;99.90;;;;;;4947151;28;20218;-68
2022/11/19 00:52:09;;;;;;;9.63;4.80;;;10.10;99.90;;;;;;4946510;28;20202;-69
2022/11/19 00:54:34;;;;;;;6.97;4.83;;;10.20;99.90;;;;;;4946527;28;20660;-68
2022/11/19 00:57:00;;;;;;;7.30;4.20;;;10.20;99.90;;;;;;5009131;28;20221;-71
2022/11/19 00:59:26;;;;;;;7.93;4.63;;;10.20;99.90;;;;;;4955356;28;20241;-68
2022/11/19 01:01:51;;;;;;;7.77;4.30;;;10.20;99.90;;;;;;4946528;28;20751;-70
2022/11/19 01:04:17;;;;;;;5.73;4.37;;;10.20;99.90;;;;;;4955454;28;20218;-69
2022/11/19 01:06:43;;;;;;;6.10;4.97;;;10.20;99.90;;;;;;4944629;28;20198;-67
2022/11/19 01:09:08;;;;;;;8.50;4.00;;;10.10;99.90;;;;;;4943927;28;20577;-70
2022/11/19 01:11:36;;;;;;;11.90;5.20;;;10.10;99.90;;;;;;4946138;28;20588;-67
2022/11/19 01:14:03;;;;;;;7.03;5.33;;;10.10;99.90;;;;;;4947745;28;20187;-67
2022/11/19 01:16:32;;;;;;;5.80;4.40;;;10.10;99.90;;;;;;4949730;28;20435;-68
2022/11/19 01:18:58;;;;;;;7.50;5.17;;;10.20;99.90;;;;;;4946331;28;20435;-68
2022/11/19 01:21:29;;;;;;;6.67;4.90;;;10.20;99.90;;;;;;4943258;28;20468;-67
2022/11/19 01:23:55;;;;;;;9.83;5.57;;;10.10;99.90;;;;;;4946070;28;20459;-68
2022/11/19 01:26:21;;;;;;;10.00;5.50;;;10.00;99.90;;;;;;4951242;28;20798;-67
2022/11/19 01:28:47;;;;;;;10.50;5.70;;;10.00;99.90;;;;;;4951038;28;20433;-67
2022/11/19 01:31:22;;;;;;;7.87;4.60;;;10.00;99.90;;;;;;4953434;28;20927;-68
2022/11/19 01:33:49;;;;;;;7.10;5.33;;;10.00;99.90;;;;;;4951486;28;20197;-69
2022/11/19 01:36:25;;;;;;;14.73;5.43;;;10.00;99.90;;;;;;4965226;28;20451;-69
2022/11/19 01:38:53;;;;;;;7.53;4.90;;;10.10;99.90;;;;;;4955395;28;20464;-69
2022/11/19 01:41:24;;;;;;;7.30;4.53;;;10.20;99.90;;;;;;4952122;28;20502;-68
2022/11/19 01:43:51;;;;;;;8.00;4.20;;;10.10;99.90;;;;;;4954036;28;20557;-69
2022/11/19 01:46:23;;;;;;;10.90;5.20;;;10.10;99.90;;;;;;5010965;28;21101;-68
2022/11/19 01:48:57;;;;;;;14.10;4.63;;;10.10;99.90;;;;;;4949961;28;20462;-70
2022/11/19 01:51:29;;;;;;;7.70;5.13;;;10.10;99.90;;;;;;4952982;28;20430;-67
2022/11/19 01:54:00;;;;;;;7.50;5.30;;;10.10;99.90;;;;;;4949056;28;20457;-68
2022/11/19 01:56:27;;;;;;;6.07;4.97;;;10.10;99.90;;;;;;4946924;28;20422;-68
2022/11/19 01:59:07;;;;;;;8.33;5.20;;;10.10;99.90;;;;;;4945926;28;20477;-67
2022/11/19 02:01:32;;;;;;;7.13;5.43;;;10.10;99.90;;;;;;4941748;28;20470;-68
2022/11/19 02:04:03;;;;;;;11.87;5.70;;;10.10;99.90;;;;;;4942659;28;20473;-67
2022/11/19 02:06:29;;;;;;;11.93;5.30;;;10.20;99.90;;;;;;4943467;28;20574;-69
2022/11/19 02:08:55;;;;;;;6.10;4.73;;;10.20;99.90;;;;;;5012214;28;20952;-68
2022/11/19 02:11:44;;;;;;;7.67;4.70;;;10.10;99.90;;;;;;4944859;28;20451;-68
2022/11/19 02:14:37;;;;;;;6.80;4.70;;;10.20;99.90;;;;;;4947027;28;20221;-69
2022/11/19 02:17:17;;;;;;;9.70;5.03;;;10.20;99.90;;;;;;4945086;28;20490;-70
2022/11/19 02:20:33;;;;;;;7.93;5.00;;;10.10;99.90;;;;;;5005835;28;20884;-69
2022/11/19 02:23:29;;;;;;;5.10;4.60;;;10.10;99.90;;;;;;4957096;28;20498;-69
2022/11/19 02:26:16;;;;;;;5.20;3.67;;;10.10;99.90;;;;;;4947254;28;20463;-68
2022/11/19 02:28:58;;;;;;;6.10;4.40;;;10.00;99.90;;;;;;4954166;28;20430;-68
2022/11/19 02:31:44;;;;;;;6.63;4.57;;;10.00;99.90;;;;;;4946236;28;20841;-67
2022/11/19 02:34:20;;;;;;;8.60;4.70;;;10.00;99.90;;;;;;4953589;28;20500;-68
2022/11/19 02:37:09;;;;;;;7.70;4.53;;;10.00;99.90;;;;;;4955104;28;21379;-69
2022/11/19 02:39:40;;;;;;;4.37;3.97;;;10.00;99.90;;;;;;4948745;28;20784;-67
2022/11/19 02:42:28;;;;;;;5.87;4.60;;;9.90;99.90;;;;;;4950488;28;20442;-67
2022/11/19 02:44:58;;;;;;;6.90;4.90;;;9.90;99.90;;;;;;4943605;28;20485;-69
2022/11/19 02:47:40;;;;;;;5.83;4.43;;;10.00;99.90;;;;;;4953407;28;20634;-67
2022/11/19 02:50:19;;;;;;;5.50;4.70;;;10.00;99.90;;;;;;5010989;28;20471;-67
2022/11/19 02:52:46;;;;;;;8.00;5.40;;;10.00;99.90;;;;;;4942137;28;20492;-68
2022/11/19 02:55:13;;;;;;;11.57;5.67;;;10.00;99.90;;;;;;4952164;28;20826;-67
2022/11/19 02:57:42;;;;;;;7.63;4.97;;;9.90;99.90;;;;;;4948802;28;20442;-68
2022/11/19 03:05:48;;;;;;;8.60;5.13;;;9.90;99.90;;;;;;4948892;28;20946;-68
2022/11/19 03:08:14;;;;;;;9.20;5.03;;;9.90;99.90;;;;;;4945225;28;20414;-68
2022/11/19 03:11:00;;;;;;;11.23;6.03;;;9.90;99.90;;;;;;4941421;28;20842;-67
2022/11/19 03:16:42;;;;;;;8.23;5.00;;;10.00;99.90;;;;;;4931478;28;20625;-67
2022/11/19 03:19:17;;;;;;;8.57;5.43;;;10.10;99.90;;;;;;4944382;28;20447;-68
2022/11/19 03:21:50;;;;;;;6.70;5.03;;;10.10;99.90;;;;;;4949172;28;22039;-68
2022/11/19 03:24:32;;;;;;;8.30;5.50;;;10.10;99.90;;;;;;5007999;28;21006;-69
2022/11/19 03:27:12;;;;;;;11.53;7.27;;;10.20;99.90;;;;;;4951813;28;20438;-69
2022/11/19 03:29:42;;;;;;;6.73;5.37;;;10.10;99.90;;;;;;4951816;28;20433;-68
2022/11/19 03:32:15;;;;;;;7.50;6.30;;;10.10;99.90;;;;;;4948497;28;20451;-67
2022/11/19 03:34:43;;;;;;;10.10;6.10;;;10.20;99.90;;;;;;4952766;28;20486;-66
2022/11/19 03:37:11;;;;;;;11.70;5.70;;;10.20;99.90;;;;;;4950866;28;20790;-67
2022/11/19 03:39:38;;;;;;;9.97;5.60;;;10.10;99.90;;;;;;4952512;28;20556;-69
2022/11/19 03:42:08;;;;;;;8.67;5.77;;;10.20;99.90;;;;;;4940723;28;20474;-68
2022/11/19 03:44:51;;;;;;;10.10;5.80;;;10.10;99.90;;;;;;4942053;28;20552;-67
2022/11/19 03:47:31;;;;;;;8.20;5.63;;;10.20;99.90;;;;;;4952537;28;20450;-68
2022/11/19 03:50:05;;;;;;;8.87;5.40;;;10.20;99.90;;;;;;4946504;28;20554;-68
2022/11/19 03:52:32;;;;;;;7.73;5.20;;;10.10;99.90;;;;;;4941641;28;20850;-68
2022/11/19 03:54:57;;;;;;;9.83;6.73;;;10.10;99.90;;;;;;4942892;28;20431;-68
2022/11/19 03:57:25;;;;;;;8.40;5.90;;;10.00;99.90;;;;;;4951823;28;20817;-68
2022/11/19 03:59:50;;;;;;;6.80;5.17;;;10.00;99.90;;;;;;4944548;28;20254;-68
2022/11/19 04:02:16;;;;;;;6.23;5.37;;;10.00;99.90;;;;;;4944533;28;20546;-68
2022/11/19 04:04:42;;;;;;;7.13;5.57;;;10.00;99.90;;;;;;4943549;28;20201;-66
2022/11/19 04:07:21;;;;;;;10.33;6.53;;;10.00;99.90;;;;;;4947451;28;20772;-67
2022/11/19 04:09:47;;;;;;;7.73;5.70;;;9.90;99.90;;;;;;4942523;28;20662;-67
2022/11/19 04:12:19;;;;;;;9.00;6.23;;;10.00;99.90;;;;;;4950827;28;20943;-67
2022/11/19 04:14:46;;;;;;;9.77;6.27;;;9.90;99.90;;;;;;4943453;28;20443;-67
2022/11/19 04:17:11;;;;;;;10.37;6.23;;;9.90;99.90;;;;;;4946665;28;20563;-68
2022/11/19 04:19:37;;;;;;;10.53;6.07;;;10.00;99.90;;;;;;4942010;28;20443;-68
2022/11/19 04:22:03;;;;;;;12.60;6.13;;;10.00;99.90;;;;;;4943826;28;20450;-68
2022/11/19 04:24:29;;;;;;;7.97;5.23;;;9.90;99.90;;;;;;5007802;28;20206;-68
2022/11/19 04:26:54;;;;;;;6.20;5.40;;;10.00;99.90;;;;;;4943058;28;20199;-68
2022/11/19 04:29:20;;;;;;;9.07;6.50;;;10.00;99.90;;;;;;4942420;28;20472;-68
2022/11/19 04:31:45;;;;;;;12.63;7.60;;;10.00;99.90;;;;;;5006705;28;20749;-68
2022/11/19 04:34:11;;;;;;;11.13;5.87;;;10.00;99.90;;;;;;4944520;28;20222;-68
2022/11/19 04:36:40;;;;;;;8.67;6.10;;;10.00;99.90;;;;;;4940998;28;20746;-68
2022/11/19 04:39:06;;;;;;;11.00;6.97;;;10.00;99.90;;;;;;4943909;28;20198;-67
2022/11/19 04:41:32;;;;;;;8.80;6.27;;;10.00;99.90;;;;;;4952033;28;20457;-68
2022/11/19 04:43:58;;;;;;;9.00;6.90;;;10.00;99.90;;;;;;4944743;28;20474;-68
2022/11/19 04:46:23;;;;;;;10.10;7.20;;;10.00;99.90;;;;;;4948599;28;20451;-67
2022/11/19 04:48:49;;;;;;;8.80;6.60;;;10.00;99.90;;;;;;4943283;28;20179;-67
2022/11/19 04:51:14;;;;;;;9.97;6.83;;;10.00;99.90;;;;;;4941723;28;20268;-67
2022/11/19 04:53:40;;;;;;;12.30;7.27;;;9.90;99.90;;;;;;4942659;28;20209;-68
2022/11/19 04:56:06;;;;;;;9.07;7.30;;;10.00;99.90;;;;;;4944166;28;20194;-69
2022/11/19 04:58:32;;;;;;;11.03;7.10;;;10.00;99.90;;;;;;4944457;28;20297;-68
2022/11/19 05:00:58;;;;;;;9.93;6.53;;;10.10;99.90;;;;;;4940990;28;20970;-66
2022/11/19 05:03:23;;;;;;;14.63;6.80;;;10.10;99.90;;;;;;5011657;28;20486;-67
2022/11/19 05:05:49;;;;;;;9.17;7.23;;;10.10;99.90;;;;;;4945582;28;20183;-67
2022/11/19 05:08:14;;;;;;;8.10;6.40;;;10.10;99.90;;;;;;4951132;28;20187;-68
2022/11/19 05:10:42;;;;;;;8.33;6.83;;;10.10;99.90;;;;;;4940868;28;20589;-67
2022/11/19 05:13:07;;;;;;;10.83;7.10;;;10.00;99.90;;;;;;4946981;28;20192;-67
2022/11/19 05:15:33;;;;;;;11.23;6.83;;;10.00;99.90;;;;;;4940489;28;21263;-69
2022/11/19 05:17:58;;;;;;;11.43;7.27;;;9.90;99.90;;;;;;5009835;28;20354;-69
2022/11/19 05:20:24;;;;;;;10.33;7.40;;;9.90;99.90;;;;;;4948903;28;20273;-67
2022/11/19 05:22:49;;;;;;;10.00;7.73;;;9.90;99.90;;;;;;4949093;28;20179;-68
2022/11/19 05:25:15;;;;;;;8.80;7.03;;;9.80;99.90;;;;;;4947381;28;20265;-69
2022/11/19 05:27:40;;;;;;;10.93;7.50;;;9.80;99.90;;;;;;4951960;28;20183;-69
2022/11/19 05:30:07;;;;;;;9.10;6.53;;;9.90;99.90;;;;;;4949041;28;20187;-69
2022/11/19 05:32:32;;;;;;;9.87;7.37;;;10.00;99.90;;;;;;4950719;28;20184;-66
2022/11/19 05:34:58;;;;;;;11.23;6.77;;;10.00;99.90;;;;;;4948472;28;20596;-67
2022/11/19 05:37:23;;;;;;;9.93;7.67;;;10.00;99.90;;;;;;4947927;28;20197;-68
2022/11/19 05:39:49;;;;;;;9.57;7.87;;;9.90;99.90;;;;;;4952120;28;20585;-67
2022/11/19 05:42:14;;;;;;;11.20;7.23;;;9.90;99.90;;;;;;4953185;28;20211;-68
2022/11/19 05:44:40;;;;;;;10.37;7.60;;;10.00;99.90;;;;;;4952114;28;20207;-69
2022/11/19 05:47:05;;;;;;;8.30;7.20;;;9.90;99.90;;;;;;4957584;28;20437;-68
2022/11/19 05:49:31;;;;;;;9.70;7.60;;;9.90;99.90;;;;;;4944515;28;20195;-66
2022/11/19 05:51:56;;;;;;;13.43;8.10;;;9.90;99.90;;;;;;4955180;28;20235;-68
2022/11/19 05:54:22;;;;;;;11.00;7.70;;;9.90;99.90;;;;;;4946759;28;20560;-68
2022/11/19 05:56:47;;;;;;;13.13;7.60;;;9.90;99.90;;;;;;4943350;28;20253;-68
2022/11/19 05:59:14;;;;;;;10.50;7.23;;;10.00;99.90;;;;;;4947071;28;20187;-68
2022/11/19 06:01:39;;;;;;;12.07;8.47;;;10.00;99.90;;;;;;5012111;28;20743;-67
2022/11/19 06:04:05;;;;;;;10.10;7.20;;;10.10;99.90;;;;;;4946447;28;20554;-66
2022/11/19 06:06:30;;;;;;;10.00;7.97;;;10.00;99.90;;;;;;4958221;28;20709;-67
2022/11/19 06:08:56;;;;;;;11.87;7.47;;;10.00;99.90;;;;;;4950485;28;20547;-68
2022/11/19 06:14:06;;;;;;;12.07;8.03;;;9.80;99.90;;;;;;4942702;28;20249;-69
2022/11/19 06:16:31;;;;;;;9.63;7.70;;;9.90;99.90;;;;;;4944957;28;20446;-68
2022/11/19 06:18:57;;;;;;;10.70;6.83;;;9.90;99.90;;;;;;4944336;28;20192;-68
2022/11/19 06:21:22;;;;;;;10.33;7.47;;;10.00;99.90;;;;;;4949238;28;20231;-68
2022/11/19 06:23:48;;;;;;;15.03;8.17;;;10.00;99.90;;;;;;4942859;28;20246;-68
2022/11/19 06:26:25;;;;;;;10.23;7.80;;;10.10;99.90;;;;;;4948369;28;20222;-67
2022/11/19 06:28:51;;;;;;;9.40;7.07;;;10.00;99.90;;;;;;5010234;28;20696;-68
2022/11/19 06:31:18;;;;;;;9.10;7.20;;;10.00;99.90;;;;;;4944003;28;20536;-68
2022/11/19 06:33:44;;;;;;;12.20;6.80;;;10.10;99.90;;;;;;5009989;28;20478;-68
2022/11/19 06:36:10;;;;;;;11.37;7.60;;;10.10;99.90;;;;;;4951111;28;20481;-68
2022/11/19 06:38:35;;;;;;;12.93;7.80;;;10.00;99.90;;;;;;4955062;28;20205;-67
2022/11/19 06:41:01;;;;;;;11.70;8.30;;;9.90;99.90;;;;;;4950946;28;20272;-68
2022/11/19 06:43:27;;;;;;;13.80;8.90;;;10.00;99.90;;;;;;4956835;28;20227;-67
2022/11/19 06:45:53;;;;;;;12.43;7.87;;;10.00;99.90;;;;;;4954765;28;20184;-68
2022/11/19 06:48:19;;;;;;;14.13;8.40;;;10.00;99.90;;;;;;4944240;28;20450;-67
2022/11/19 06:50:45;;;;;;;8.30;7.43;;;10.00;99.90;;;;;;4942594;28;20215;-68
2022/11/19 06:53:11;;;;;;;9.60;8.13;;;10.20;99.90;;;;;;4943590;28;20238;-67
2022/11/19 06:55:37;;;;;;;10.33;7.83;;;10.20;99.90;;;;;;4959912;28;20882;-67
2022/11/19 06:58:03;;;;;;;12.10;7.93;;;10.20;99.90;;;;;;4943426;28;20474;-67
2022/11/19 07:00:29;;;;;;;10.57;7.90;;;10.10;99.90;;;;;;4961720;28;20211;-68
2022/11/19 07:02:55;;;;;;;11.60;8.40;;;10.10;99.90;;;;;;4944507;28;20426;-68
2022/11/19 07:05:20;;;;;;;13.47;8.37;;;10.10;99.90;;;;;;5008571;28;20541;-68
2022/11/19 07:07:46;;;;;;;12.20;9.00;;;10.10;99.90;;;;;;4946862;28;20190;-68
2022/11/19 07:10:11;;;;;;;14.53;10.27;;;10.10;99.90;;;;;;4952451;28;20712;-68
2022/11/19 07:12:37;;;;;;;11.03;8.00;;;10.10;99.90;;;;;;4947515;28;20253;-68
2022/11/19 07:15:03;;;;;;;9.73;8.33;;;10.10;99.90;;;;;;4955658;28;20660;-68
2022/11/19 07:17:29;;;;;;;10.43;8.70;;;10.10;99.90;;;;;;4950351;28;20548;-68
2022/11/19 07:19:54;;;;;;;12.47;9.17;;;10.10;99.90;;;;;;4965173;28;20449;-68
2022/11/19 07:22:20;;;;;;;9.43;8.07;;;10.20;99.90;;;;;;4950811;28;20344;-68
2022/11/19 07:24:48;;;;;;;9.70;8.37;;;10.20;99.90;;;;;;4955993;28;20210;-68
2022/11/19 07:27:15;;;;;;;10.97;8.50;;;10.10;99.90;;;;;;5007435;28;20188;-68
2022/11/19 07:29:40;;;;;;;12.57;8.13;;;10.10;99.90;;;;;;4946680;28;20427;-67
2022/11/19 07:32:06;;;;;;;14.00;9.10;;;10.00;99.90;;;;;;4952935;28;20478;-68
2022/11/19 07:34:32;;;;;;;10.37;7.57;;;10.00;99.90;;;;;;4949367;28;20206;-68
2022/11/19 07:36:58;;;;;;;11.67;8.70;;;10.00;99.90;;;;;;4942818;28;20927;-68
2022/11/19 07:39:23;;;;;;;10.80;8.40;;;10.10;99.90;;;;;;4953503;28;20195;-68
2022/11/19 07:44:33;;;;;;;10.73;7.87;;;10.10;99.90;;;;;;4951499;28;20776;-68
2022/11/19 07:46:58;;;;;;;12.83;7.70;;;10.10;99.90;;;;;;4951453;28;20434;-68
2022/11/19 07:49:25;;;;;;;11.23;7.50;;;10.10;99.90;;;;;;5008767;28;20211;-68
2022/11/19 07:51:51;;;;;;;13.17;8.30;;;10.10;99.90;;;;;;4950810;28;20202;-68
2022/11/19 07:54:17;;;;;;;13.33;7.53;;;10.10;99.90;;;;;;4943688;28;20458;-68
2022/11/19 07:56:43;;;;;;;8.80;7.73;;;10.10;99.90;;;;;;4958743;28;21381;-68
2022/11/19 07:59:09;;;;;;;12.70;8.20;;;10.10;99.90;;;;;;4945745;28;20187;-69
2022/11/19 08:01:35;;;;;;;11.27;7.73;;;10.10;99.90;;;;;;4953907;28;20774;-68
2022/11/19 08:04:01;;;;;;;10.40;7.83;;;10.10;99.90;;;;;;4946220;28;20467;-69
2022/11/19 08:06:28;;;;;;;13.50;8.50;;;10.10;99.90;;;;;;4946057;28;20480;-69
2022/11/19 08:08:55;;;;;;;10.37;7.70;;;10.10;99.90;;;;;;4945538;28;20522;-68
2022/11/19 08:11:21;;;;;;;9.20;6.93;;;10.10;99.90;;;;;;4961267;28;20455;-68
2022/11/19 08:13:46;;;;;;;10.67;7.40;;;10.10;99.90;;;;;;4946336;28;20427;-69
2022/11/19 08:18:59;;;;;;;11.57;8.23;;;10.20;99.90;;;;;;4946276;28;20209;-67
2022/11/19 08:21:25;;;;;;;11.90;6.63;;;10.30;99.90;;;;;;4948150;28;20458;-67
2022/11/19 08:23:50;;;;;;;11.87;7.20;;;10.30;99.90;;;;;;4946349;28;20478;-67
2022/11/19 08:26:16;;;;;;;10.73;6.30;;;10.20;99.90;;;;;;4955825;28;20605;-68
2022/11/19 08:28:41;;;;;;;6.90;5.90;;;10.20;99.90;;;;;;4942009;28;20191;-68
2022/11/19 08:31:08;;;;;;;9.20;5.90;;;10.30;99.90;;;;;;4949968;28;20219;-68
2022/11/19 08:33:34;;;;;;;8.40;6.00;;;10.30;99.90;;;;;;4948057;28;20695;-68
2022/11/19 08:36:00;;;;;;;14.93;5.97;;;10.30;99.90;;;;;;4947684;28;20435;-68
2022/11/19 08:38:26;;;;;;;8.07;5.80;;;10.40;99.90;;;;;;4949055;28;20788;-68
2022/11/19 08:42:58;;;;;;;7.80;5.50;;;10.40;99.90;;;;;;4949807;28;20733;-67
2022/11/19 08:43:38;;;;;;;12.43;5.57;;;10.30;99.90;;;;;;4946084;28;20218;-68
2022/11/19 08:46:04;;;;;;;8.80;6.00;;;10.30;99.90;;;;;;4949764;28;20435;-68
2022/11/19 08:48:30;;;;;;;5.90;5.33;;;10.30;99.90;;;;;;4957864;28;20605;-68
2022/11/19 08:50:55;;;;;;;17.57;6.00;;;10.30;99.90;;;;;;4943386;28;20454;-68
2022/11/19 08:53:21;;;;;;;10.47;5.37;;;10.30;99.90;;;;;;4943230;28;20183;-67
2022/11/19 08:55:50;;;;;;;18.50;6.90;;;10.30;99.90;;;;;;4943186;28;20191;-67
2022/11/19 08:58:16;;;;;;;7.00;5.53;;;10.30;99.90;;;;;;4943944;28;20188;-67
2022/11/19 09:00:42;;;;;;;7.00;5.03;;;10.30;99.90;;;;;;4943163;28;20455;-67
2022/11/19 09:03:07;;;;;;;8.43;6.20;;;10.30;99.90;;;;;;4946113;28;20184;-67
2022/11/19 09:05:33;;;;;;;9.50;5.40;;;10.30;99.90;;;;;;4941648;28;20202;-67
2022/11/19 09:07:58;;;;;;;8.40;4.83;;;10.40;99.90;;;;;;4948391;28;20638;-67
2022/11/19 09:10:24;;;;;;;7.90;4.40;;;10.30;99.90;;;;;;4944391;28;20207;-67
2022/11/19 09:12:51;;;;;;;11.03;6.10;;;10.40;99.90;;;;;;4946368;28;20203;-67
2022/11/19 09:15:17;;;;;;;8.10;5.70;;;10.40;99.90;;;;;;4946114;28;20191;-68
2022/11/19 09:17:43;;;;;;;7.10;5.10;;;10.40;99.90;;;;;;4940891;28;20831;-69
2022/11/19 09:20:09;;;;;;;7.53;5.80;;;10.50;99.90;;;;;;4946348;28;20225;-69
2022/11/19 09:22:34;;;;;;;10.40;5.33;;;10.40;99.90;;;;;;4945154;28;20268;-67
2022/11/19 09:25:00;;;;;;;6.93;5.20;;;10.50;99.90;;;;;;4947164;28;20971;-68
2022/11/19 09:27:25;;;;;;;11.83;6.30;;;10.40;99.90;;;;;;4946035;28;20238;-67
2022/11/19 09:29:51;;;;;;;8.63;5.60;;;10.50;99.90;;;;;;4951341;28;20188;-67
2022/11/19 09:32:16;;;;;;;7.70;5.63;;;10.50;99.90;;;;;;4948784;28;20340;-67
2022/11/19 09:34:42;;;;;;;13.57;6.40;;;10.60;99.90;;;;;;4946471;28;20196;-67
2022/11/19 09:37:08;;;;;;;8.67;5.57;;;10.60;99.90;;;;;;4946394;28;20187;-68
2022/11/19 09:39:34;;;;;;;7.73;5.63;;;10.60;99.90;;;;;;4947849;28;20194;-68
2022/11/19 09:41:59;;;;;;;7.43;5.90;;;10.60;99.90;;;;;;4948402;28;20271;-68
2022/11/19 09:44:41;;;;;;;8.93;6.50;;;10.70;99.90;;;;;;5011568;28;20463;-68
2022/11/19 09:47:23;;;;;;;11.50;5.97;;;10.60;99.90;;;;;;4959306;28;20618;-69
2022/11/19 09:50:12;;;;;;;13.83;5.73;;;10.60;99.90;;;;;;4952758;28;20803;-67
2022/11/19 09:53:00;;;;;;;8.00;5.03;;;10.60;99.90;;;;;;4942461;28;20746;-67
2022/11/19 09:55:34;;;;;;;13.03;5.60;;;10.60;99.90;;;;;;4943541;28;20447;-68
2022/11/19 09:58:02;;;;;;;6.40;4.70;;;10.60;99.90;;;;;;4945933;28;20441;-68
2022/11/19 10:00:30;;;;;;;6.00;4.70;;;10.70;99.90;;;;;;5010414;28;20469;-69
2022/11/19 10:03:10;;;;;;;16.37;5.77;;;10.70;99.90;;;;;;4945322;28;20792;-67
2022/11/19 10:05:49;;;;;;;8.27;4.87;;;10.60;99.90;;;;;;4943656;28;20438;-67
2022/11/19 10:08:21;;;;;;;5.73;4.57;;;10.50;99.90;;;;;;5012541;28;20778;-67
2022/11/19 10:11:03;;;;;;;7.20;4.60;;;10.50;99.90;;;;;;4954799;28;20434;-66
2022/11/19 10:13:35;;;;;;;4.40;3.90;;;10.50;99.90;;;;;;4956346;28;20789;-68
2022/11/19 10:16:10;;;;;;;8.20;4.40;;;10.40;99.90;;;;;;4943409;28;20423;-67
2022/11/19 10:19:19;;;;;;;5.83;4.10;;;10.40;99.90;;;;;;4951554;28;20573;-68
2022/11/19 10:22:08;;;;;;;8.70;4.50;;;10.40;99.90;;;;;;4998549;28;20570;-68
2022/11/19 10:24:40;;;;;;;7.30;5.33;;;10.40;99.90;;;;;;4999269;28;20510;-68
2022/11/19 10:27:18;;;;;;;11.10;4.40;;;10.40;99.90;;;;;;4991772;28;20435;-68
2022/11/19 10:29:46;;;;;;;8.90;4.10;;;10.40;99.90;;;;;;4945235;28;20462;-68
2022/11/19 10:32:41;;;;;;;5.40;3.60;;;10.40;99.90;;;;;;4947092;28;20872;-69
2022/11/19 10:35:15;;;;;;;6.63;3.47;;;10.40;99.90;;;;;;4945513;28;20450;-68
2022/11/19 10:38:03;;;;;;;5.40;3.60;;;10.40;99.90;;;;;;4949222;28;20434;-69
2022/11/19 10:40:53;;;;;;;5.83;3.80;;;10.30;99.90;;;;;;4953471;28;20843;-68
2022/11/19 10:43:28;;;;;;;6.37;4.10;;;10.30;99.90;;;;;;4941994;28;20656;-69
2022/11/19 10:45:57;;;;;;;8.53;3.60;;;10.30;99.90;;;;;;4953539;28;20438;-68
2022/11/19 10:48:28;;;;;;;7.50;3.80;;;10.30;99.90;;;;;;4950436;28;20479;-69
2022/11/19 10:50:57;;;;;;;5.50;3.40;;;10.20;99.90;;;;;;4945387;28;21042;-68
2022/11/19 10:53:28;;;;;;;4.70;3.90;;;10.30;99.90;;;;;;4941344;28;20496;-69
2022/11/19 10:56:14;;;;;;;8.20;4.60;;;10.30;99.90;;;;;;5010552;28;20427;-69
2022/11/19 10:58:48;;;;;;;6.57;3.30;;;10.30;99.90;;;;;;4958833;28;20505;-68
2022/11/19 11:01:33;;;;;;;5.40;3.70;;;10.20;99.90;;;;;;4942356;28;21381;-68
2022/11/19 11:04:19;;;;;;;8.63;5.43;;;10.20;99.90;;;;;;4942897;28;20474;-69
2022/11/19 11:06:54;;;;;;;8.27;4.13;;;10.30;99.90;;;;;;4947826;28;20835;-68
2022/11/19 11:09:41;;;;;;;6.97;4.57;;;10.40;99.90;;;;;;4947687;28;20515;-68
2022/11/19 11:15:16;;;;;;;5.57;4.00;;;10.50;99.90;;;;;;4943051;28;20765;-68
2022/11/19 11:17:45;;;;;;;14.23;5.03;;;10.50;99.90;;;;;;4950428;28;20453;-68
2022/11/19 11:20:17;;;;;;;6.13;4.47;;;10.50;99.90;;;;;;5008125;28;20488;-68
2022/11/19 11:22:45;;;;;;;10.37;4.47;;;10.50;99.90;;;;;;4943774;28;20443;-69
2022/11/19 11:25:31;;;;;;;5.47;4.57;;;10.60;99.90;;;;;;4940032;28;20466;-68
2022/11/19 11:28:19;;;;;;;6.27;3.80;;;10.70;99.90;;;;;;4944177;28;20906;-69
2022/11/19 11:31:08;;;;;;;5.40;4.87;;;10.70;99.90;;;;;;4942461;28;20898;-69
2022/11/19 11:33:34;;;;;;;4.43;3.83;;;10.70;99.90;;;;;;4944163;28;20516;-69
2022/11/19 11:36:13;;;;;;;6.83;4.00;;;10.70;99.90;;;;;;4950655;28;20449;-69
2022/11/19 11:38:48;;;;;;;9.10;4.57;;;10.80;99.90;;;;;;4944566;28;20423;-69
2022/11/19 11:41:19;;;;;;;6.53;4.20;;;10.80;99.90;;;;;;4940831;28;20481;-69
2022/11/19 11:44:00;;;;;;;6.13;3.80;;;10.80;99.90;;;;;;4943112;28;20475;-69
2022/11/19 11:46:41;;;;;;;8.63;4.27;;;10.80;99.90;;;;;;4949172;28;20806;-67
2022/11/19 11:49:24;;;;;;;5.80;4.00;;;10.80;99.90;;;;;;4942220;28;20446;-68
2022/11/19 11:52:04;;;;;;;5.00;4.50;;;10.80;99.90;;;;;;4943132;28;20438;-68
2022/11/19 11:54:30;;;;;;;10.23;4.23;;;10.80;99.90;;;;;;4944136;28;20442;-68
2022/11/19 11:57:18;;;;;;;11.57;4.90;;;10.80;99.90;;;;;;4943536;28;20442;-67
2022/11/19 11:59:44;;;;;;;6.73;4.30;;;10.80;99.90;;;;;;4942222;28;20192;-69
2022/11/19 12:02:21;;;;;;;7.20;4.30;;;10.80;99.90;;;;;;4941211;28;20557;-67
2022/11/19 12:04:48;;;;;;;7.10;4.90;;;10.80;99.90;;;;;;4949882;28;21010;-70
2022/11/19 12:07:38;;;;;;;7.67;4.23;;;10.80;99.90;;;;;;5007428;28;20890;-67
2022/11/19 12:10:19;;;;;;;6.10;3.83;;;10.80;99.90;;;;;;4997288;28;20956;-67
2022/11/19 12:13:21;;;;;;;7.57;4.60;;;10.70;99.90;;;;;;4952221;28;20502;-67
2022/11/19 12:16:10;;;;;;;6.83;4.00;;;10.60;99.90;;;;;;4942753;28;21032;-67
2022/11/19 12:18:49;;;;;;;9.50;4.50;;;10.60;99.90;;;;;;4941247;28;20779;-68
2022/11/19 12:21:41;;;;;;;4.43;3.90;;;10.50;99.90;;;;;;4958394;28;20453;-67
2022/11/19 12:24:21;;;;;;;9.23;6.67;;;10.60;99.90;;;;;;4945754;28;20471;-68
2022/11/19 12:27:08;;;;;;;7.83;4.20;;;10.70;99.90;;;;;;4951750;28;20443;-68
2022/11/19 12:29:45;;;;;;;11.37;4.40;;;10.60;99.90;;;;;;4943597;28;20883;-68
2022/11/19 12:32:33;;;;;;;5.00;3.73;;;10.70;99.90;;;;;;4944980;28;20512;-68
2022/11/19 12:35:31;;;;;;;7.03;5.07;;;10.70;99.90;;;;;;4943809;28;20879;-68
2022/11/19 12:38:33;;;;;;;6.30;3.63;;;10.70;99.90;;;;;;4964270;28;20939;-68
2022/11/19 12:41:30;;;;;;;7.00;4.30;;;10.80;99.90;;;;;;4942723;28;20462;-68
2022/11/19 12:43:58;;;;;;;12.37;4.50;;;10.80;99.90;;;;;;4942110;28;20471;-70
2022/11/19 12:46:27;;;;;;;6.93;4.23;;;10.80;99.90;;;;;;4946137;28;20496;-68
2022/11/19 12:49:27;;;;;;;14.67;8.20;;;10.80;99.90;;;;;;4943087;28;20500;-68
2022/11/19 12:52:11;;;;;;;5.00;4.43;;;10.80;99.90;;;;;;4939456;28;20449;-68
2022/11/19 12:55:03;;;;;;;5.87;4.20;;;10.80;99.90;;;;;;5016435;28;20450;-68
2022/11/19 12:57:56;;;;;;;7.60;4.33;;;10.80;99.90;;;;;;4944742;28;20434;-68
2022/11/19 13:00:24;;;;;;;8.20;3.77;;;11.00;99.90;;;;;;4940334;28;20516;-68
2022/11/19 13:03:20;;;;;;;6.03;3.40;;;11.00;99.90;;;;;;4943107;28;20442;-68
2022/11/19 13:06:08;;;;;;;11.20;4.03;;;11.00;99.90;;;;;;4944966;28;20427;-68
2022/11/19 13:08:39;;;;;;;6.30;4.10;;;11.10;99.90;;;;;;4939012;28;20487;-68
2022/11/19 13:11:26;;;;;;;3.80;3.17;;;11.10;99.90;;;;;;4942584;28;20450;-68
2022/11/19 13:13:59;;;;;;;7.67;4.23;;;11.10;99.90;;;;;;4942494;28;20669;-69
2022/11/19 13:16:26;;;;;;;4.77;3.97;;;11.10;99.90;;;;;;4938615;28;20478;-68
2022/11/19 13:19:05;;;;;;;4.63;4.00;;;11.10;99.90;;;;;;4941540;28;20441;-68
2022/11/19 13:21:46;;;;;;;5.57;4.20;;;11.20;99.90;;;;;;4940045;28;20478;-67
2022/11/19 13:24:37;;;;;;;4.10;3.70;;;11.10;99.90;;;;;;4943051;28;20863;-67
2022/11/19 13:27:08;;;;;;;6.80;3.90;;;11.10;99.90;;;;;;4940805;28;20476;-68